Time;durP1;ratioP1;P1;durP2;ratioP2;P2;SDS_P1;SDS_P2;PMS_P1;PMS_P2;Temp;Humidity;BMP_temperature;BMP_pressure;BME280_temperature;BME280_humidity;BME280_pressure;Samples;Min_cycle;Max_cycle;Signal;HPM_P1;HPM_P2
2023/05/15 00:02:15;;;;;;;8.32;7.53;;;;;;;12.00;100.00;100542.69;5073240;28;20036;-83
2023/05/15 00:04:42;;;;;;;8.88;7.97;;;;;;;12.00;100.00;100540.03;5053992;28;20059;-83
2023/05/15 00:07:09;;;;;;;9.13;8.23;;;;;;;12.04;100.00;100539.06;5073935;28;20578;-83
2023/05/15 00:09:36;;;;;;;9.02;8.13;;;;;;;11.97;100.00;100532.19;5040603;28;20394;-83
2023/05/15 00:12:03;;;;;;;8.45;7.65;;;;;;;11.92;100.00;100528.81;5073357;28;20047;-82
2023/05/15 00:14:29;;;;;;;10.40;8.57;;;;;;;12.02;100.00;100525.88;5056304;28;20055;-85
2023/05/15 00:16:56;;;;;;;9.60;8.50;;;;;;;11.97;100.00;100524.25;5056535;28;20047;-84
2023/05/15 00:19:23;;;;;;;8.85;7.95;;;;;;;11.95;100.00;100518.16;5039869;28;20087;-84
2023/05/15 00:21:49;;;;;;;8.52;7.70;;;;;;;11.81;100.00;100516.75;5073207;28;20048;-84
2023/05/15 00:24:16;;;;;;;9.55;8.00;;;;;;;11.79;100.00;100512.38;5040114;28;20413;-84
2023/05/15 00:26:43;;;;;;;8.63;7.57;;;;;;;11.80;100.00;100516.78;5069780;28;20047;-82
2023/05/15 00:29:09;;;;;;;9.15;8.02;;;;;;;11.73;100.00;100516.06;5067056;28;20041;-83
2023/05/15 00:31:36;;;;;;;9.60;7.85;;;;;;;11.73;100.00;100501.94;5058054;28;20089;-81
2023/05/15 00:34:03;;;;;;;8.75;7.95;;;;;;;11.79;100.00;100512.38;5047503;28;20057;-83
2023/05/15 00:36:30;;;;;;;9.10;8.30;;;;;;;11.84;100.00;100506.06;5069864;28;20041;-84
2023/05/15 00:38:56;;;;;;;9.93;8.43;;;;;;;11.83;100.00;100506.97;5066186;28;20033;-81
2023/05/15 00:41:25;;;;;;;9.07;8.18;;;;;;;11.74;100.00;100504.56;5086337;28;20536;-83
2023/05/15 00:43:54;;;;;;;9.10;8.18;;;;;;;11.67;100.00;100495.03;5048546;28;20434;-81
2023/05/15 00:46:21;;;;;;;8.90;8.00;;;;;;;11.59;100.00;100504.09;5086389;28;20090;-83
2023/05/15 00:48:49;;;;;;;11.05;8.65;;;;;;;11.53;100.00;100499.88;5035696;28;20037;-82
2023/05/15 00:51:16;;;;;;;9.45;8.55;;;;;;;11.55;100.00;100498.91;5068864;28;20577;-84
2023/05/15 00:53:43;;;;;;;9.40;8.52;;;;;;;11.56;100.00;100491.81;5069470;28;20047;-84
2023/05/15 00:56:11;;;;;;;9.60;8.70;;;;;;;11.50;100.00;100490.22;5052642;28;20131;-83
2023/05/15 00:58:38;;;;;;;10.05;9.02;;;;;;;11.37;100.00;100482.66;5048964;28;20044;-83
2023/05/15 01:01:05;;;;;;;9.75;8.68;;;;;;;11.30;100.00;100487.22;5052226;28;20059;-81
2023/05/15 01:03:34;;;;;;;9.70;8.75;;;;;;;11.18;100.00;100488.44;5030044;28;20072;-82
2023/05/15 01:06:01;;;;;;;9.98;8.70;;;;;;;11.04;100.00;100477.34;5066067;28;20086;-83
2023/05/15 01:08:44;;;;;;;10.50;9.38;;;;;;;11.04;100.00;100468.53;5054984;28;20076;-82
2023/05/15 01:11:13;;;;;;;9.48;8.57;;;;;;;11.03;100.00;100467.66;5052958;28;20040;-81
2023/05/15 01:13:40;;;;;;;10.60;9.50;;;;;;;10.97;100.00;100468.69;5033796;28;20569;-82
2023/05/15 01:16:07;;;;;;;9.50;8.50;;;;;;;10.97;100.00;100471.31;5068961;28;20036;-82
2023/05/15 01:18:34;;;;;;;10.63;9.57;;;;;;;10.91;100.00;100474.13;5052437;28;20032;-82
2023/05/15 01:21:03;;;;;;;10.07;9.05;;;;;;;10.79;100.00;100466.50;5052036;28;20036;-81
2023/05/15 01:23:50;;;;;;;12.30;10.18;;;;;;;10.84;100.00;100479.59;5085567;28;20040;-81
2023/05/15 01:26:51;;;;;;;10.93;9.82;;;;;;;10.66;100.00;100472.97;5034683;28;20114;-82
2023/05/15 01:29:26;;;;;;;10.75;9.05;;;;;;;10.56;100.00;100467.03;5047831;28;20037;-83
2023/05/15 01:31:56;;;;;;;10.63;9.40;;;;;;;10.30;100.00;100469.41;5068545;28;20513;-81
2023/05/15 01:34:31;;;;;;;11.95;10.32;;;;;;;10.14;100.00;100463.56;5034167;28;20032;-81
2023/05/15 01:37:02;;;;;;;11.23;9.60;;;;;;;10.04;100.00;100465.53;5085353;28;20044;-80
2023/05/15 01:39:31;;;;;;;13.40;10.15;;;;;;;10.03;100.00;100458.53;5068088;28;20110;-83
2023/05/15 01:42:14;;;;;;;12.35;10.10;;;;;;;10.05;100.00;100454.06;5034753;28;20040;-82
2023/05/15 01:44:45;;;;;;;13.63;10.45;;;;;;;10.00;100.00;100458.56;5068310;28;20045;-82
2023/05/15 01:47:14;;;;;;;12.35;10.68;;;;;;;9.99;100.00;100455.97;5051634;28;20055;-82
2023/05/15 01:49:42;;;;;;;12.20;10.63;;;;;;;9.96;100.00;100454.28;5084091;28;20037;-81
2023/05/15 01:52:15;;;;;;;11.80;9.93;;;;;;;9.89;100.00;100452.66;5064892;28;20048;-81
2023/05/15 01:54:42;;;;;;;13.60;11.38;;;;;;;9.79;100.00;100452.00;5068227;28;20051;-81
2023/05/15 01:57:10;;;;;;;13.05;10.52;;;;;;;9.69;100.00;100450.44;5051510;28;20049;-80
2023/05/15 01:59:37;;;;;;;13.20;11.32;;;;;;;9.57;100.00;100446.25;5060133;28;20037;-81
2023/05/15 02:02:05;;;;;;;11.88;10.23;;;;;;;9.53;100.00;100449.00;5048082;28;20045;-80
2023/05/15 02:04:32;;;;;;;13.30;10.85;;;;;;;9.57;100.00;100445.41;5084685;28;20404;-81
2023/05/15 02:07:00;;;;;;;11.80;10.20;;;;;;;9.55;100.00;100444.56;5033787;28;20071;-83
2023/05/15 02:09:27;;;;;;;11.85;10.63;;;;;;;9.55;100.00;100442.78;5067608;28;20066;-81
2023/05/15 02:11:55;;;;;;;11.55;10.35;;;;;;;9.50;100.00;100439.41;5047727;28;20044;-83
2023/05/15 02:14:21;;;;;;;11.25;10.02;;;;;;;9.41;100.00;100442.19;5033908;28;20056;-80
2023/05/15 02:16:48;;;;;;;12.25;10.95;;;;;;;9.26;100.00;100439.88;5067566;28;20059;-83
2023/05/15 02:19:15;;;;;;;13.30;11.30;;;;;;;9.16;100.00;100443.53;5050204;28;20044;-81
2023/05/15 02:21:41;;;;;;;13.23;10.53;;;;;;;9.13;100.00;100438.34;5068907;28;20040;-80
2023/05/15 02:24:08;;;;;;;11.83;10.17;;;;;;;9.18;100.00;100431.22;5082585;28;20106;-81
2023/05/15 02:26:56;;;;;;;13.00;10.90;;;;;;;9.11;100.00;100426.97;5069558;28;20059;-81
2023/05/15 02:30:02;;;;;;;13.87;11.40;;;;;;;8.91;100.00;100422.94;5030907;28;20048;-80
2023/05/15 02:32:55;;;;;;;14.03;11.23;;;;;;;8.84;100.00;100425.69;5030522;28;20299;-84
2023/05/15 02:35:37;;;;;;;12.13;10.83;;;;;;;8.74;100.00;100427.59;5084326;28;20036;-81
2023/05/15 02:38:08;;;;;;;12.07;10.50;;;;;;;8.83;100.00;100429.19;5063800;28;20040;-80
2023/05/15 02:40:35;;;;;;;13.70;11.07;;;;;;;8.85;100.00;100428.28;5033923;28;20525;-82
2023/05/15 02:43:03;;;;;;;14.93;12.57;;;;;;;8.81;100.00;100426.59;5066614;28;20436;-82
2023/05/15 02:45:30;;;;;;;12.90;11.50;;;;;;;8.69;100.00;100421.53;5050971;28;20055;-80
2023/05/15 02:47:57;;;;;;;13.00;11.10;;;;;;;8.55;100.00;100424.38;5051197;28;20040;-82
2023/05/15 02:50:24;;;;;;;12.00;10.63;;;;;;;8.45;100.00;100415.78;5050724;28;20131;-82
2023/05/15 02:53:01;;;;;;;13.13;11.37;;;;;;;8.35;100.00;100416.81;5050722;28;20032;-80
2023/05/15 02:55:28;;;;;;;14.03;11.77;;;;;;;8.37;100.00;100416.78;5032754;28;20494;-81
2023/05/15 02:57:54;;;;;;;13.80;10.60;;;;;;;8.34;100.00;100401.00;5054233;28;20478;-82
2023/05/15 03:00:21;;;;;;;12.83;11.10;;;;;;;8.48;100.00;100399.03;5065220;28;20041;-82
2023/05/15 03:02:48;;;;;;;12.07;10.77;;;;;;;8.42;100.00;100400.03;5066352;28;20041;-82
2023/05/15 03:06:21;;;;;;;12.97;11.50;;;;;;;8.28;100.00;100393.19;5097986;28;20075;-82
2023/05/15 06:44:21;;;;;;;14.93;8.73;;;;;;;16.90;78.93;100275.78;5021286;28;20052;-82
2023/05/15 07:10:03;;;;;;;13.85;7.45;;;;;;;16.13;83.30;100241.47;5073211;28;20084;-81
2023/05/15 07:18:35;;;;;;;9.23;7.35;;;;;;;15.73;86.02;100247.91;5009134;28;20612;-82
2023/05/15 07:26:33;;;;;;;9.38;8.38;;;;;;;15.93;82.95;100239.81;5035748;28;20095;-83
2023/05/15 07:30:21;;;;;;;9.18;7.88;;;;;;;15.93;83.39;100237.16;4972210;28;20054;-83
2023/05/15 07:37:41;;;;;;;14.10;10.80;;;;;;;16.03;84.52;100237.53;4998758;28;20046;-82
2023/05/15 07:41:57;;;;;;;8.52;7.72;;;;;;;16.25;79.99;100240.88;4927661;29;20050;-84
2023/05/15 07:45:55;;;;;;;8.52;7.63;;;;;;;16.23;79.62;100232.09;4910713;29;20040;-81
2023/05/15 07:49:07;;;;;;;9.93;7.73;;;;;;;16.05;78.23;100238.31;4895966;29;20047;-84
2023/05/15 07:51:34;;;;;;;8.38;7.00;;;;;;;15.95;80.85;100235.25;4994538;28;20419;-83
2023/05/15 07:54:02;;;;;;;9.95;8.07;;;;;;;15.85;81.35;100231.31;4984718;28;20486;-83
2023/05/15 07:56:31;;;;;;;8.40;7.00;;;;;;;15.75;81.41;100227.41;5019399;28;20073;-83
2023/05/15 07:58:58;;;;;;;10.77;7.43;;;;;;;15.76;81.41;100227.31;5007896;28;20128;-82
2023/05/15 08:01:24;;;;;;;7.43;6.57;;;;;;;15.83;82.54;100225.22;5028409;28;20454;-83
2023/05/15 08:03:51;;;;;;;8.25;7.45;;;;;;;15.91;83.44;100211.53;5026746;28;20051;-84
2023/05/15 08:06:18;;;;;;;8.93;8.02;;;;;;;15.96;82.11;100214.81;5020847;28;20053;-83
2023/05/15 08:08:45;;;;;;;10.07;8.68;;;;;;;15.90;81.02;100213.34;5023149;28;20046;-83
2023/05/15 08:11:11;;;;;;;9.00;8.10;;;;;;;15.91;84.37;100212.38;5011336;28;20084;-83
2023/05/15 08:13:38;;;;;;;8.55;7.75;;;;;;;16.05;86.98;100207.22;5047075;28;20180;-83
2023/05/15 08:16:05;;;;;;;10.38;8.73;;;;;;;16.02;84.31;100196.72;4999058;28;20120;-83
2023/05/15 08:18:32;;;;;;;9.50;8.50;;;;;;;16.06;83.76;100189.44;5024766;28;20342;-82
2023/05/15 08:20:58;;;;;;;11.00;9.32;;;;;;;16.13;82.99;100189.97;4991754;28;20042;-83
2023/05/15 08:23:25;;;;;;;10.70;9.68;;;;;;;16.30;82.28;100185.50;5020714;28;20041;-83
2023/05/15 08:25:52;;;;;;;9.85;8.82;;;;;;;16.30;83.15;100179.31;5036019;28;20037;-83
2023/05/15 08:28:19;;;;;;;9.90;8.90;;;;;;;16.41;82.47;100176.13;5004849;28;20041;-82
2023/05/15 08:30:45;;;;;;;9.35;8.15;;;;;;;16.61;82.54;100168.78;5021343;28;20147;-83
2023/05/15 08:33:12;;;;;;;9.82;8.85;;;;;;;16.80;78.86;100168.69;5054559;28;20044;-83
2023/05/15 08:35:38;;;;;;;8.82;7.85;;;;;;;16.64;78.10;100169.53;5094382;28;20049;-83
2023/05/15 08:38:05;;;;;;;9.38;8.00;;;;;;;16.83;79.67;100167.66;5064763;28;20032;-84
2023/05/15 08:40:32;;;;;;;9.82;8.80;;;;;;;17.05;79.71;100168.19;5074551;28;20128;-84
2023/05/15 08:43:14;;;;;;;8.65;7.75;;;;;;;17.04;77.57;100168.28;5063682;28;20075;-82
2023/05/15 08:45:41;;;;;;;8.82;7.93;;;;;;;16.96;75.97;100158.03;5034186;28;20041;-83
2023/05/15 08:48:12;;;;;;;8.00;6.90;;;;;;;17.04;78.87;100155.81;5077997;28;20044;-82
2023/05/15 08:50:40;;;;;;;72.78;15.90;;;;;;;17.14;77.15;100157.00;5065190;28;20549;-81
2023/05/15 08:53:07;;;;;;;7.88;7.18;;;;;;;17.30;74.25;100158.84;5067023;28;20094;-85
2023/05/15 08:55:33;;;;;;;9.43;7.18;;;;;;;17.27;74.46;100151.88;5050745;28;20090;-83
2023/05/15 08:58:01;;;;;;;8.27;7.28;;;;;;;17.17;74.09;100145.31;5039577;28;20540;-83
2023/05/15 09:00:27;;;;;;;9.32;6.65;;;;;;;17.11;74.07;100140.31;5034799;28;20106;-84
2023/05/15 09:02:54;;;;;;;11.93;7.45;;;;;;;16.95;76.12;100150.13;5053631;28;20040;-83
2023/05/15 09:05:21;;;;;;;8.80;6.85;;;;;;;16.92;76.44;100136.97;5036303;28;20040;-84
2023/05/15 09:07:48;;;;;;;67.28;16.45;;;;;;;16.86;75.06;100140.81;5037602;28;20056;-84
2023/05/15 09:10:15;;;;;;;13.73;7.57;;;;;;;16.84;75.06;100143.56;5036166;28;20637;-84
2023/05/15 09:12:43;;;;;;;11.07;7.28;;;;;;;16.65;74.83;100145.47;5085847;28;20044;-83
2023/05/15 09:15:14;;;;;;;7.55;6.75;;;;;;;16.64;76.75;100143.72;5081933;28;20072;-84
2023/05/15 09:17:42;;;;;;;7.30;6.60;;;;;;;16.63;78.24;100150.00;5035789;28;20040;-84
2023/05/15 09:20:30;;;;;;;11.40;7.05;;;;;;;16.68;78.22;100147.13;5052815;28;20040;-85
2023/05/15 09:22:58;;;;;;;8.50;7.53;;;;;;;16.67;80.32;100140.91;5061512;28;20128;-85
2023/05/15 09:25:39;;;;;;;7.43;6.70;;;;;;;16.69;80.33;100139.06;5036218;28;20040;-83
2023/05/15 09:28:08;;;;;;;8.30;6.63;;;;;;;16.74;81.15;100125.50;5052745;28;20045;-85
2023/05/15 09:30:40;;;;;;;10.45;7.60;;;;;;;16.86;80.85;100122.13;5050715;28;20063;-84
2023/05/15 09:33:08;;;;;;;7.40;6.68;;;;;;;16.87;79.36;100127.38;5052785;28;20078;-84
2023/05/15 09:35:39;;;;;;;9.13;6.40;;;;;;;16.76;79.74;100129.78;5056384;28;20485;-84
2023/05/15 09:38:11;;;;;;;7.22;6.22;;;;;;;16.72;80.40;100127.34;5055825;28;20072;-84
2023/05/15 09:40:39;;;;;;;7.07;6.38;;;;;;;16.76;81.12;100132.44;5045457;28;20104;-84
2023/05/15 09:43:09;;;;;;;7.45;6.70;;;;;;;16.80;81.74;100127.78;5068420;28;20036;-84
2023/05/15 09:45:36;;;;;;;10.23;7.38;;;;;;;16.99;78.92;100123.19;5037539;28;20470;-84
2023/05/15 09:48:06;;;;;;;8.48;7.20;;;;;;;17.03;81.56;100121.19;5037083;28;20040;-85
2023/05/15 09:50:35;;;;;;;7.85;7.07;;;;;;;17.24;80.54;100122.69;5036400;28;20106;-83
2023/05/15 09:53:02;;;;;;;8.63;6.93;;;;;;;17.27;78.85;100122.50;5036398;28;20158;-85
2023/05/15 09:55:33;;;;;;;8.10;6.68;;;;;;;17.39;81.78;100126.28;5035428;28;20076;-85
2023/05/15 09:58:07;;;;;;;7.85;7.03;;;;;;;17.57;77.89;100124.34;5067437;28;20556;-83
2023/05/15 10:00:35;;;;;;;9.07;7.88;;;;;;;17.68;78.24;100130.81;5050883;28;20043;-82
2023/05/15 10:03:15;;;;;;;12.57;7.38;;;;;;;17.53;74.67;100123.69;5040252;28;20032;-84
2023/05/15 10:05:42;;;;;;;10.65;7.93;;;;;;;17.63;75.11;100124.00;5052448;28;20494;-85
2023/05/15 10:08:10;;;;;;;9.45;7.80;;;;;;;17.80;77.01;100128.38;5036928;28;20044;-85
2023/05/15 10:10:37;;;;;;;7.57;6.80;;;;;;;17.71;74.48;100127.97;5034160;28;20469;-83
2023/05/15 10:13:05;;;;;;;7.97;6.45;;;;;;;17.97;72.71;100121.09;5040241;28;20121;-85
2023/05/15 10:15:32;;;;;;;8.45;7.00;;;;;;;18.13;72.81;100122.84;5035910;28;20528;-86
2023/05/15 10:17:59;;;;;;;8.02;6.28;;;;;;;18.45;73.73;100126.25;5050764;28;20048;-84
2023/05/15 10:20:26;;;;;;;10.40;7.43;;;;;;;18.56;70.21;100127.28;5086101;28;20044;-87
2023/05/15 10:22:55;;;;;;;10.77;7.93;;;;;;;18.60;66.76;100121.78;5052325;28;20490;-86
2023/05/15 10:25:34;;;;;;;9.02;6.88;;;;;;;18.66;67.95;100116.06;5055809;28;20043;-83
2023/05/15 10:28:01;;;;;;;9.85;6.68;;;;;;;18.93;63.32;100108.13;5071365;28;20044;-84
2023/05/15 10:30:30;;;;;;;100.95;16.17;;;;;;;18.97;64.30;100107.81;5040059;28;20080;-85
2023/05/15 10:32:57;;;;;;;12.48;6.72;;;;;;;19.04;61.37;100106.47;5056157;28;20737;-84
2023/05/15 10:35:25;;;;;;;6.63;5.65;;;;;;;19.17;62.28;100102.97;5058986;28;20135;-84
2023/05/15 10:37:52;;;;;;;8.60;6.47;;;;;;;19.23;61.48;100100.78;5072452;28;20045;-83
2023/05/15 10:40:19;;;;;;;9.70;6.10;;;;;;;19.34;61.73;100106.31;5056840;28;20463;-85
2023/05/15 10:42:46;;;;;;;8.77;6.53;;;;;;;19.36;60.20;100100.84;5046025;28;20131;-83
2023/05/15 10:45:13;;;;;;;7.22;6.25;;;;;;;19.65;57.99;100094.44;5072437;28;20131;-84
2023/05/15 10:47:41;;;;;;;9.52;6.43;;;;;;;19.86;55.86;100099.31;5039906;28;20041;-84
2023/05/15 10:50:09;;;;;;;7.72;6.13;;;;;;;20.15;55.71;100089.25;5056934;28;20157;-86
2023/05/15 10:52:37;;;;;;;6.70;5.30;;;;;;;20.42;55.60;100081.97;5055524;28;20040;-85
2023/05/15 10:55:08;;;;;;;7.20;5.60;;;;;;;20.66;54.63;100084.78;5070734;28;20036;-84
2023/05/15 10:57:35;;;;;;;11.38;5.95;;;;;;;20.87;53.92;100084.22;5070217;28;20543;-83
2023/05/15 11:00:04;;;;;;;8.85;5.53;;;;;;;20.88;52.51;100075.19;5039291;28;20036;-86
2023/05/15 11:02:37;;;;;;;5.90;5.30;;;;;;;20.64;48.14;100070.63;5073853;28;20029;-83
2023/05/15 11:05:04;;;;;;;7.97;6.00;;;;;;;20.60;48.23;100065.56;5039511;28;20044;-86
2023/05/15 11:07:31;;;;;;;5.75;4.90;;;;;;;20.55;49.43;100067.72;5056295;28;20413;-84
2023/05/15 11:09:57;;;;;;;5.80;5.22;;;;;;;20.70;49.22;100055.91;5039183;28;20048;-83
2023/05/15 11:12:24;;;;;;;5.85;5.20;;;;;;;21.01;49.16;100044.63;5038941;28;20032;-83
2023/05/15 11:14:50;;;;;;;5.80;5.25;;;;;;;21.34;47.54;100053.88;5044186;28;20457;-84
2023/05/15 11:17:17;;;;;;;4.75;4.35;;;;;;;21.69;47.27;100047.66;5067524;28;20060;-80
2023/05/15 11:19:50;;;;;;;5.05;4.55;;;;;;;21.97;42.95;100043.72;5040989;28;20044;-81
2023/05/15 11:22:35;;;;;;;6.05;3.97;;;;;;;22.36;44.89;100037.91;5067916;28;20040;-83
2023/05/15 11:25:10;;;;;;;4.25;3.83;;;;;;;22.46;42.16;100021.91;5072067;28;20036;-82
2023/05/15 11:27:42;;;;;;;4.28;3.10;;;;;;;22.67;39.94;100022.88;5069253;28;20486;-82
2023/05/15 11:30:23;;;;;;;4.25;3.30;;;;;;;22.81;39.88;100018.22;5056510;28;20123;-82
2023/05/15 11:33:00;;;;;;;4.50;3.80;;;;;;;23.02;39.72;100003.84;5059235;28;20040;-82
2023/05/15 11:35:31;;;;;;;4.82;3.33;;;;;;;23.08;40.04;100001.66;5052582;28;20050;-82
2023/05/15 11:38:01;;;;;;;3.67;3.38;;;;;;;23.23;39.59;99992.28;5071775;28;20047;-83
2023/05/15 11:40:32;;;;;;;4.20;3.80;;;;;;;23.15;38.58;99990.22;5064092;28;20044;-81
2023/05/15 11:43:01;;;;;;;4.90;3.65;;;;;;;23.32;38.49;99983.44;5063601;28;20119;-82
2023/05/15 11:45:29;;;;;;;5.18;3.80;;;;;;;23.27;39.51;99989.19;5069656;28;20048;-81
2023/05/15 11:47:59;;;;;;;3.70;3.40;;;;;;;23.17;39.73;99979.31;5052991;28;20058;-82
2023/05/15 11:50:26;;;;;;;5.25;3.97;;;;;;;23.05;40.81;99973.13;5070966;28;20131;-81
2023/05/15 11:52:53;;;;;;;4.28;3.88;;;;;;;23.19;38.67;99967.41;5042184;28;20033;-83
2023/05/15 11:55:20;;;;;;;3.78;3.47;;;;;;;23.47;38.66;99955.19;5062991;28;20055;-80
2023/05/15 11:57:46;;;;;;;3.92;3.53;;;;;;;23.39;36.52;99965.75;5078820;28;20040;-81
2023/05/15 12:00:13;;;;;;;5.32;3.38;;;;;;;23.37;37.04;99962.31;5055275;28;20044;-83
2023/05/15 12:02:40;;;;;;;6.55;3.33;;;;;;;22.62;35.73;99965.00;5088835;28;20044;-81
2023/05/15 12:05:07;;;;;;;7.10;3.67;;;;;;;22.87;38.32;99958.47;5037384;28;20105;-82
2023/05/15 12:07:40;;;;;;;3.72;3.33;;;;;;;22.98;38.38;99951.22;5055488;28;20130;-82
2023/05/15 12:10:09;;;;;;;3.20;2.90;;;;;;;23.00;38.52;99949.25;5054713;28;20656;-84
2023/05/15 12:12:40;;;;;;;6.70;3.72;;;;;;;22.93;39.86;99947.19;5055006;28;20041;-83
2023/05/15 12:15:15;;;;;;;4.82;3.75;;;;;;;22.64;40.11;99953.13;5049429;28;20566;-81
2023/05/15 12:17:43;;;;;;;4.57;3.60;;;;;;;22.38;40.29;99949.00;5064667;28;20414;-81
2023/05/15 12:20:14;;;;;;;19.80;5.57;;;;;;;21.67;39.94;99950.16;5052344;28;20463;-81
2023/05/15 12:22:41;;;;;;;6.47;3.80;;;;;;;21.63;41.14;99955.78;5088866;28;20036;-84
2023/05/15 12:25:10;;;;;;;4.85;3.33;;;;;;;21.32;41.79;99957.28;5037495;28;20424;-82
2023/05/15 12:27:40;;;;;;;6.47;3.92;;;;;;;20.91;44.44;99989.03;5059769;28;20463;-83
2023/05/15 12:30:09;;;;;;;5.35;3.83;;;;;;;20.17;50.77;100010.41;5036433;28;20052;-83
2023/05/15 12:32:36;;;;;;;6.30;4.00;;;;;;;18.41;62.56;100017.72;5025011;28;20045;-82
2023/05/15 12:35:04;;;;;;;11.88;4.03;;;;;;;17.36;73.67;100028.53;5047420;28;20044;-81
2023/05/15 12:37:32;;;;;;;5.80;4.07;;;;;;;17.07;84.91;100032.03;5037120;28;20136;-85
2023/05/15 12:40:01;;;;;;;4.07;3.25;;;;;;;16.81;89.97;100047.66;5054319;28;20565;-82
2023/05/15 12:42:28;;;;;;;9.43;3.95;;;;;;;16.29;96.65;100085.16;5055926;28;20040;-81
2023/05/15 12:44:55;;;;;;;5.53;4.30;;;;;;;15.97;100.00;100115.28;5055222;28;20044;-82
2023/05/15 12:47:24;;;;;;;8.13;4.63;;;;;;;15.79;100.00;100098.44;5053899;28;20574;-83
2023/05/15 12:49:56;;;;;;;7.20;4.88;;;;;;;15.57;100.00;100087.13;5071612;28;20033;-83
2023/05/15 12:52:23;;;;;;;5.70;4.22;;;;;;;15.39;100.00;100092.44;5046330;28;20044;-83
2023/05/15 12:54:50;;;;;;;6.70;4.60;;;;;;;15.36;100.00;100092.56;5069485;28;20465;-82
2023/05/15 12:57:16;;;;;;;7.38;4.38;;;;;;;15.16;100.00;100090.91;5037471;28;20467;-82
2023/05/15 12:59:43;;;;;;;6.03;4.47;;;;;;;15.02;100.00;100068.53;5070277;28;20032;-84
2023/05/15 13:02:11;;;;;;;7.90;4.90;;;;;;;15.09;100.00;100059.34;5045621;28;20475;-82
2023/05/15 13:04:37;;;;;;;6.47;4.43;;;;;;;15.17;100.00;100066.00;5035379;28;20258;-81
2023/05/15 13:07:05;;;;;;;6.20;4.40;;;;;;;15.28;100.00;100051.31;5035600;28;20048;-83
2023/05/15 13:09:33;;;;;;;5.00;4.50;;;;;;;15.43;100.00;100043.41;5066301;28;20036;-83
2023/05/15 13:12:03;;;;;;;5.28;4.72;;;;;;;15.53;100.00;100046.47;5037175;28;20033;-83
2023/05/15 13:14:33;;;;;;;5.75;4.97;;;;;;;15.37;100.00;100040.19;5065480;28;20283;-83
2023/05/15 13:17:03;;;;;;;7.20;4.90;;;;;;;15.65;100.00;100031.72;5048049;28;20545;-84
2023/05/15 13:19:30;;;;;;;5.18;4.43;;;;;;;15.74;100.00;100050.75;5039675;28;20055;-82
2023/05/15 13:21:57;;;;;;;5.28;4.78;;;;;;;15.86;100.00;100065.22;5035194;28;20117;-84
2023/05/15 13:24:24;;;;;;;6.18;4.32;;;;;;;16.04;100.00;100074.94;5031422;28;20049;-83
2023/05/15 13:26:51;;;;;;;6.05;4.80;;;;;;;16.06;100.00;100069.53;5045378;28;20045;-83
2023/05/15 13:29:18;;;;;;;4.88;4.35;;;;;;;15.99;100.00;100078.78;5025662;28;20044;-83
2023/05/15 13:31:45;;;;;;;6.03;4.72;;;;;;;16.11;100.00;100085.28;5082176;28;20025;-82
2023/05/15 13:34:12;;;;;;;5.70;5.20;;;;;;;15.91;100.00;100095.16;5035143;28;20075;-84
2023/05/15 13:36:38;;;;;;;7.43;5.30;;;;;;;15.55;100.00;100094.31;5067512;28;20041;-83
2023/05/15 13:39:05;;;;;;;7.00;5.57;;;;;;;15.38;100.00;100088.03;5067728;28;20048;-82
2023/05/15 13:41:32;;;;;;;7.38;4.90;;;;;;;15.30;100.00;100078.69;5052939;28;20032;-82
2023/05/15 13:44:01;;;;;;;7.22;5.07;;;;;;;15.32;100.00;100082.16;5040071;28;20053;-82
2023/05/15 13:46:31;;;;;;;7.47;5.57;;;;;;;15.27;100.00;100081.53;5052979;28;20068;-81
2023/05/15 13:48:58;;;;;;;5.53;5.03;;;;;;;15.13;100.00;100075.09;5062569;28;20040;-83
2023/05/15 13:51:26;;;;;;;5.28;4.78;;;;;;;15.09;100.00;100062.84;5052950;28;20746;-84
2023/05/15 13:53:53;;;;;;;6.97;5.80;;;;;;;15.10;100.00;100064.56;5051284;28;20041;-83
2023/05/15 13:56:21;;;;;;;6.90;5.57;;;;;;;14.88;100.00;100061.22;5051503;28;20127;-83
2023/05/15 13:58:48;;;;;;;17.23;15.63;;;;;;;14.61;100.00;100060.72;5071059;28;20390;-82
2023/05/15 14:01:14;;;;;;;8.85;7.95;;;;;;;14.87;100.00;100063.00;5073532;28;20115;-82
2023/05/15 14:03:44;;;;;;;6.40;5.80;;;;;;;15.02;100.00;100076.53;5050526;28;20152;-82
2023/05/15 14:06:14;;;;;;;6.10;5.28;;;;;;;14.82;100.00;100070.38;5043037;28;20106;-84
2023/05/15 14:08:44;;;;;;;8.32;7.45;;;;;;;14.77;100.00;100069.72;5035878;28;20040;-83
2023/05/15 14:11:11;;;;;;;8.30;7.00;;;;;;;14.74;100.00;100069.88;5084202;28;20037;-83
2023/05/15 14:13:41;;;;;;;7.43;6.63;;;;;;;14.79;100.00;100053.69;5035888;28;20546;-83
2023/05/15 14:16:12;;;;;;;7.40;5.87;;;;;;;15.12;100.00;100059.19;5052010;28;20631;-83
2023/05/15 14:18:39;;;;;;;6.80;5.75;;;;;;;14.99;100.00;100058.94;5034145;28;20313;-82
2023/05/15 14:21:06;;;;;;;9.43;6.43;;;;;;;14.91;100.00;100050.44;5041261;28;20052;-81
2023/05/15 14:23:36;;;;;;;11.85;10.40;;;;;;;14.97;100.00;100051.97;5049282;28;20139;-82
2023/05/15 14:26:05;;;;;;;12.50;8.77;;;;;;;15.13;100.00;100051.16;5047815;28;20037;-82
2023/05/15 14:28:33;;;;;;;8.07;5.95;;;;;;;15.08;100.00;100053.16;5084826;28;20037;-83
2023/05/15 14:31:00;;;;;;;7.47;6.78;;;;;;;15.06;100.00;100044.41;5029077;28;20595;-81
2023/05/15 14:33:26;;;;;;;7.25;6.57;;;;;;;15.08;100.00;100034.53;5060866;28;20094;-82
2023/05/15 14:35:53;;;;;;;6.85;6.25;;;;;;;15.07;100.00;100031.94;5028725;28;20045;-82
2023/05/15 14:38:20;;;;;;;6.93;6.05;;;;;;;15.11;100.00;100031.72;5062741;28;20040;-81
2023/05/15 14:40:58;;;;;;;9.00;6.43;;;;;;;15.09;100.00;100025.59;5048922;28;20425;-82
2023/05/15 14:43:25;;;;;;;6.32;5.65;;;;;;;15.16;100.00;100026.19;5057291;28;20052;-82
2023/05/15 14:45:53;;;;;;;7.07;6.47;;;;;;;15.21;100.00;100022.31;5057915;28;20048;-82
2023/05/15 14:48:20;;;;;;;6.97;6.22;;;;;;;15.23;100.00;100024.06;5028961;28;20505;-81
2023/05/15 14:50:50;;;;;;;6.60;5.93;;;;;;;15.27;100.00;100015.84;5066149;28;20078;-82
2023/05/15 14:53:17;;;;;;;6.90;6.20;;;;;;;15.36;100.00;100012.72;5050007;28;20052;-82
2023/05/15 14:55:43;;;;;;;7.05;6.35;;;;;;;15.35;100.00;100007.47;5049086;28;20697;-82
2023/05/15 14:58:10;;;;;;;6.88;6.28;;;;;;;15.38;100.00;100012.63;5062891;28;20674;-82
2023/05/15 15:00:37;;;;;;;7.13;6.47;;;;;;;15.47;100.00;100007.75;5039472;28;20060;-82
2023/05/15 15:03:04;;;;;;;7.00;6.28;;;;;;;15.51;100.00;100003.09;5066021;28;20037;-81
2023/05/15 15:05:30;;;;;;;6.50;5.80;;;;;;;15.41;100.00;100001.84;5033358;28;20115;-80
2023/05/15 15:08:07;;;;;;;7.85;5.93;;;;;;;15.36;100.00;99998.56;5058639;28;20036;-82
2023/05/15 15:11:04;;;;;;;8.25;5.88;;;;;;;15.32;100.00;99989.03;5058615;28;20493;-82
2023/05/15 15:13:42;;;;;;;7.30;6.00;;;;;;;15.54;100.00;99986.97;5043124;28;20044;-81
2023/05/15 15:16:09;;;;;;;8.85;7.45;;;;;;;15.57;100.00;99991.28;5063632;28;20052;-82
2023/05/15 15:18:36;;;;;;;7.28;6.57;;;;;;;15.51;100.00;99983.59;5058179;28;20090;-82
2023/05/15 15:21:03;;;;;;;7.13;6.28;;;;;;;15.35;100.00;99970.22;5055568;28;20103;-82
2023/05/15 15:23:30;;;;;;;7.80;6.93;;;;;;;15.32;100.00;99981.91;5081918;28;20037;-82
2023/05/15 15:25:56;;;;;;;9.60;7.30;;;;;;;15.37;100.00;99978.97;5069906;28;20112;-83
2023/05/15 15:28:25;;;;;;;7.32;6.63;;;;;;;15.39;100.00;99983.31;5036042;28;20041;-83
2023/05/15 15:30:51;;;;;;;7.47;6.65;;;;;;;15.62;100.00;99979.47;5037280;28;20048;-83
2023/05/15 15:33:18;;;;;;;8.07;6.63;;;;;;;15.82;100.00;99969.59;5068086;28;20037;-81
2023/05/15 15:35:45;;;;;;;7.35;6.65;;;;;;;15.73;100.00;99977.13;5055283;28;20737;-82
2023/05/15 15:38:12;;;;;;;7.90;6.35;;;;;;;15.79;100.00;99965.28;5036065;28;20048;-81
2023/05/15 15:40:39;;;;;;;6.45;5.85;;;;;;;15.98;100.00;99971.38;5060792;28;20416;-82
2023/05/15 15:43:06;;;;;;;7.28;6.18;;;;;;;16.10;100.00;99963.63;5039409;28;20036;-82
2023/05/15 15:45:32;;;;;;;6.60;6.00;;;;;;;16.17;100.00;99965.88;5035780;28;20465;-83
2023/05/15 15:47:59;;;;;;;7.80;5.72;;;;;;;16.39;100.00;99959.38;5051004;28;20032;-82
2023/05/15 15:50:26;;;;;;;7.13;6.10;;;;;;;16.64;100.00;99951.72;5067271;28;20102;-82